Maverick Dos — EAMO — position and weather

sailwx.info

Track history (hours):
 
Tides and Currents Weather Stations Pressure Air Temp Water Temp Dewpoint Dewpoint Depression Visibility Wind Speed Wind Dir Waves Ship Positions

Maverick Dos

Last reported at 2017-Dec-29 11:28 UTC. Time now 2018-Feb-18 01:43 UTC.
Position N 38°54' E 001°27'.
Warning: this ship's position is 50 days out of date.

Length 39 m; draft 1.6 m.

Type: Ship. MMSI: 225392000.

Date/timePositionNaut miles runAvg speedWind from/ knotsBaromVisibWave heightAir tempDewpointWater temp
2017-Dec-29 11:28N 38°54' E 001°27'0 0.0
2017-Dec-29 11:00N 38°54' E 001°27'0 0.0
2017-Dec-29 10:29N 38°54' E 001°27'0 0.0
2017-Dec-29 09:56N 38°54' E 001°27'  
2017-Dec-24 17:00N 38°54' E 001°27'7 3.7
2017-Dec-24 14:57N 38°47' E 001°25'812.1
2017-Dec-24 14:19N 38°55' E 001°26'0 0.0
2017-Dec-24 13:06N 38°55' E 001°26'0 0.0
2017-Dec-24 12:47N 38°55' E 001°26'0 0.0
2017-Dec-24 12:16N 38°55' E 001°26'1 3.9
2017-Dec-24 11:56N 38°54' E 001°27'1 0.3
2017-Dec-24 08:12N 38°53' E 001°26'2 4.3
2017-Dec-24 07:42N 38°55' E 001°26'0 0.0
2017-Dec-24 07:20N 38°55' E 001°26'0 0.4
2017-Dec-24 06:54N 38°55' E 001°26'2 3.9
2017-Dec-24 06:25N 38°53' E 001°27'1 0.1
2017-Dec-23 19:11N 38°54' E 001°27'1 2.3
2017-Dec-23 18:49N 38°55' E 001°26'2 6.2
2017-Dec-23 18:26N 38°52' E 001°26'1 0.8
2017-Dec-23 17:10N 38°53' E 001°27'1 8.7
2017-Dec-23 17:00N 38°55' E 001°26'2 2.6
2017-Dec-23 16:25N 38°53' E 001°27'5 3.6
2017-Dec-23 15:00N 38°48' E 001°25'712.6
2017-Dec-23 14:29N 38°55' E 001°26'0 0.0
2017-Dec-23 13:57N 38°55' E 001°26'0 0.0
2017-Dec-23 13:28N 38°55' E 001°26'0 0.0
2017-Dec-23 12:59N 38°55' E 001°26'0 0.0
2017-Dec-23 12:29N 38°55' E 001°26'7 1.6
2017-Dec-23 08:24N 38°48' E 001°25'715.4
2017-Dec-23 07:58N 38°55' E 001°26'0 0.0
2017-Dec-23 07:31N 38°55' E 001°26'0 0.0
2017-Dec-23 07:00N 38°55' E 001°26'4 5.7
2017-Dec-23 06:22N 38°51' E 001°26'2 0.1
2017-Dec-22 19:20N 38°53' E 001°26'5 2.3
2017-Dec-22 17:22N 38°48' E 001°25'616.5
2017-Dec-22 16:59N 38°55' E 001°26'2 4.1
2017-Dec-22 16:26N 38°53' E 001°27'4 2.2
2017-Dec-22 14:50N 38°49' E 001°25'616.6
2017-Dec-22 14:30N 38°55' E 001°26'0 0.0
2017-Dec-22 14:00N 38°55' E 001°26'0 0.0
2017-Dec-22 13:30N 38°55' E 001°26'0 0.0
2017-Dec-22 12:59N 38°55' E 001°26'0 0.0
2017-Dec-22 12:29N 38°55' E 001°26'1 2.6
2017-Dec-22 11:58N 38°54' E 001°27'2 0.6
2017-Dec-22 08:18N 38°52' E 001°25'310.7
2017-Dec-22 08:00N 38°55' E 001°26'0 0.3
2017-Dec-22 07:23N 38°55' E 001°26'0 0.1
2017-Dec-22 07:00N 38°55' E 001°26'5 7.2
2017-Dec-22 06:18N 38°50' E 001°26'1 0.1
2017-Dec-21 19:21N 38°49' E 001°25'614.0
2017-Dec-21 18:57N 38°55' E 001°26'3 5.5
2017-Dec-21 18:22N 38°52' E 001°25'4 3.9
2017-Dec-21 17:24N 38°48' E 001°25'714.7
2017-Dec-21 16:57N 38°55' E 001°26'1 2.2
2017-Dec-21 16:28N 38°54' E 001°26'10 6.9
2017-Dec-21 15:04N 38°44' E 001°25'524.0
2017-Dec-21 14:53N 38°49' E 001°25'613.1
2017-Dec-21 14:24N 38°55' E 001°26'0 0.0
2017-Dec-21 13:58N 38°55' E 001°26'0 0.0
2017-Dec-21 13:30N 38°55' E 001°26'0 0.0
2017-Dec-21 12:58N 38°55' E 001°26'0 0.0
2017-Dec-21 12:30N 38°55' E 001°26'3 4.5
2017-Dec-21 11:54N 38°52' E 001°25'5 1.6
2017-Dec-21 08:26N 38°47' E 001°25'816.4
2017-Dec-21 07:57N 38°55' E 001°26'0 0.3
2017-Dec-21 07:26N 38°55' E 001°26'0 0.2
2017-Dec-21 06:59N 38°55' E 001°26'3 4.5
2017-Dec-21 06:25N 38°52' E 001°25'2 0.2
2017-Dec-20 19:09N 38°55' E 001°27'0 2.6
2017-Dec-20 18:59N 38°55' E 001°26'5 8.0
2017-Dec-20 18:20N 38°50' E 001°25'1 1.4
2017-Dec-20 17:22N 38°48' E 001°25'617.9
2017-Dec-20 17:00N 38°55' E 001°26'1 2.2
2017-Dec-20 16:28N 38°54' E 001°27'5 3.0
2017-Dec-20 14:54N 38°49' E 001°25'613.4
2017-Dec-20 14:28N 38°55' E 001°26'0 0.0
2017-Dec-20 14:00N 38°55' E 001°26'0 0.0
2017-Dec-20 13:30N 38°55' E 001°26'0 0.0
2017-Dec-20 13:00N 38°55' E 001°26'0 0.0
2017-Dec-20 12:28N 38°55' E 001°26'1 2.6
2017-Dec-20 11:57N 38°53' E 001°27'5 1.5
2017-Dec-20 08:26N 38°48' E 001°25'714.9
2017-Dec-20 07:59N 38°55' E 001°26'0 0.2
2017-Dec-20 07:29N 38°55' E 001°26'0 0.2
2017-Dec-20 06:58N 38°55' E 001°26'5 7.5
2017-Dec-20 06:18N 38°50' E 001°25'2 0.2
2017-Dec-19 19:25N 38°48' E 001°25'1 0.7
2017-Dec-19 17:29N 38°46' E 001°25'917.4
2017-Dec-19 16:59N 38°55' E 001°26'1 2.2
2017-Dec-19 16:30N 38°54' E 001°26'10 6.7
2017-Dec-19 15:05N 38°44' E 001°25'321.8
2017-Dec-19 14:57N 38°47' E 001°25'816.9
2017-Dec-19 14:29N 38°55' E 001°26'0 0.0
2017-Dec-19 14:00N 38°55' E 001°26'0 0.0
2017-Dec-19 13:29N 38°55' E 001°26'0 0.0
2017-Dec-19 12:58N 38°55' E 001°26'0 0.0
2017-Dec-19 12:28N 38°55' E 001°26'1 1.6
2017-Dec-19 11:59N 38°54' E 001°27'  
Track history (hours):
 
Tides and Currents Weather Stations Pressure Air Temp Water Temp Dewpoint Dewpoint Depression Visibility Wind Speed Wind Dir Waves Ship Positions

Maverick Dos

Last reported at 2017-Dec-29 11:28 UTC. Time now 2018-Feb-18 01:43 UTC.
Position N 38°54' E 001°27'.
Warning: this ship's position is 50 days out of date.

Length 39 m; draft 1.6 m.

Type: Ship. MMSI: 225392000.

Date/timePositionNaut miles runAvg speedWind from/ knotsBaromVisibWave heightAir tempDewpointWater temp
2017-Dec-29 11:28N 38°54' E 001°27'0 0.0
2017-Dec-29 11:00N 38°54' E 001°27'0 0.0
2017-Dec-29 10:29N 38°54' E 001°27'0 0.0
2017-Dec-29 09:56N 38°54' E 001°27'  
2017-Dec-24 17:00N 38°54' E 001°27'7 3.7
2017-Dec-24 14:57N 38°47' E 001°25'812.1
2017-Dec-24 14:19N 38°55' E 001°26'0 0.0
2017-Dec-24 13:06N 38°55' E 001°26'0 0.0
2017-Dec-24 12:47N 38°55' E 001°26'0 0.0
2017-Dec-24 12:16N 38°55' E 001°26'1 3.9
2017-Dec-24 11:56N 38°54' E 001°27'1 0.3
2017-Dec-24 08:12N 38°53' E 001°26'2 4.3
2017-Dec-24 07:42N 38°55' E 001°26'0 0.0
2017-Dec-24 07:20N 38°55' E 001°26'0 0.4
2017-Dec-24 06:54N 38°55' E 001°26'2 3.9
2017-Dec-24 06:25N 38°53' E 001°27'1 0.1
2017-Dec-23 19:11N 38°54' E 001°27'1 2.3
2017-Dec-23 18:49N 38°55' E 001°26'2 6.2
2017-Dec-23 18:26N 38°52' E 001°26'1 0.8
2017-Dec-23 17:10N 38°53' E 001°27'1 8.7
2017-Dec-23 17:00N 38°55' E 001°26'2 2.6
2017-Dec-23 16:25N 38°53' E 001°27'5 3.6
2017-Dec-23 15:00N 38°48' E 001°25'712.6
2017-Dec-23 14:29N 38°55' E 001°26'0 0.0
2017-Dec-23 13:57N 38°55' E 001°26'0 0.0
2017-Dec-23 13:28N 38°55' E 001°26'0 0.0
2017-Dec-23 12:59N 38°55' E 001°26'0 0.0
2017-Dec-23 12:29N 38°55' E 001°26'7 1.6
2017-Dec-23 08:24N 38°48' E 001°25'715.4
2017-Dec-23 07:58N 38°55' E 001°26'0 0.0
2017-Dec-23 07:31N 38°55' E 001°26'0 0.0
2017-Dec-23 07:00N 38°55' E 001°26'4 5.7
2017-Dec-23 06:22N 38°51' E 001°26'2 0.1
2017-Dec-22 19:20N 38°53' E 001°26'5 2.3
2017-Dec-22 17:22N 38°48' E 001°25'616.5
2017-Dec-22 16:59N 38°55' E 001°26'2 4.1
2017-Dec-22 16:26N 38°53' E 001°27'4 2.2
2017-Dec-22 14:50N 38°49' E 001°25'616.6
2017-Dec-22 14:30N 38°55' E 001°26'0 0.0
2017-Dec-22 14:00N 38°55' E 001°26'0 0.0
2017-Dec-22 13:30N 38°55' E 001°26'0 0.0
2017-Dec-22 12:59N 38°55' E 001°26'0 0.0
2017-Dec-22 12:29N 38°55' E 001°26'1 2.6
2017-Dec-22 11:58N 38°54' E 001°27'2 0.6
2017-Dec-22 08:18N 38°52' E 001°25'310.7
2017-Dec-22 08:00N 38°55' E 001°26'0 0.3
2017-Dec-22 07:23N 38°55' E 001°26'0 0.1
2017-Dec-22 07:00N 38°55' E 001°26'5 7.2
2017-Dec-22 06:18N 38°50' E 001°26'1 0.1
2017-Dec-21 19:21N 38°49' E 001°25'614.0
2017-Dec-21 18:57N 38°55' E 001°26'3 5.5
2017-Dec-21 18:22N 38°52' E 001°25'4 3.9
2017-Dec-21 17:24N 38°48' E 001°25'714.7
2017-Dec-21 16:57N 38°55' E 001°26'1 2.2
2017-Dec-21 16:28N 38°54' E 001°26'10 6.9
2017-Dec-21 15:04N 38°44' E 001°25'524.0
2017-Dec-21 14:53N 38°49' E 001°25'613.1
2017-Dec-21 14:24N 38°55' E 001°26'0 0.0
2017-Dec-21 13:58N 38°55' E 001°26'0 0.0
2017-Dec-21 13:30N 38°55' E 001°26'0 0.0
2017-Dec-21 12:58N 38°55' E 001°26'0 0.0
2017-Dec-21 12:30N 38°55' E 001°26'3 4.5
2017-Dec-21 11:54N 38°52' E 001°25'5 1.6
2017-Dec-21 08:26N 38°47' E 001°25'816.4
2017-Dec-21 07:57N 38°55' E 001°26'0 0.3
2017-Dec-21 07:26N 38°55' E 001°26'0 0.2
2017-Dec-21 06:59N 38°55' E 001°26'3 4.5
2017-Dec-21 06:25N 38°52' E 001°25'2 0.2
2017-Dec-20 19:09N 38°55' E 001°27'0 2.6
2017-Dec-20 18:59N 38°55' E 001°26'5 8.0
2017-Dec-20 18:20N 38°50' E 001°25'1 1.4
2017-Dec-20 17:22N 38°48' E 001°25'617.9
2017-Dec-20 17:00N 38°55' E 001°26'1 2.2
2017-Dec-20 16:28N 38°54' E 001°27'5 3.0
2017-Dec-20 14:54N 38°49' E 001°25'613.4
2017-Dec-20 14:28N 38°55' E 001°26'0 0.0
2017-Dec-20 14:00N 38°55' E 001°26'0 0.0
2017-Dec-20 13:30N 38°55' E 001°26'0 0.0
2017-Dec-20 13:00N 38°55' E 001°26'0 0.0
2017-Dec-20 12:28N 38°55' E 001°26'1 2.6
2017-Dec-20 11:57N 38°53' E 001°27'5 1.5
2017-Dec-20 08:26N 38°48' E 001°25'714.9
2017-Dec-20 07:59N 38°55' E 001°26'0 0.2
2017-Dec-20 07:29N 38°55' E 001°26'0 0.2
2017-Dec-20 06:58N 38°55' E 001°26'5 7.5
2017-Dec-20 06:18N 38°50' E 001°25'2 0.2
2017-Dec-19 19:25N 38°48' E 001°25'1 0.7
2017-Dec-19 17:29N 38°46' E 001°25'917.4
2017-Dec-19 16:59N 38°55' E 001°26'1 2.2
2017-Dec-19 16:30N 38°54' E 001°26'10 6.7
2017-Dec-19 15:05N 38°44' E 001°25'321.8
2017-Dec-19 14:57N 38°47' E 001°25'816.9
2017-Dec-19 14:29N 38°55' E 001°26'0 0.0
2017-Dec-19 14:00N 38°55' E 001°26'0 0.0
2017-Dec-19 13:29N 38°55' E 001°26'0 0.0
2017-Dec-19 12:58N 38°55' E 001°26'0 0.0
2017-Dec-19 12:28N 38°55' E 001°26'1 1.6
2017-Dec-19 11:59N 38°54' E 001°27'  

Dump ship's entire track history